Weather observations for the past three days for
Waterville, Waterville Robert LaFleur Airport
Metric (Imperial)
Date Time (edt) Wind (kph) Vis. (km) Weather Sky Cond. Temperature (ºC) Relative Humidity Wind Chill (°C) Heat Index (°C) Pressure Precipitation (cm)
Air Dwpt 6 hour altimeter (cm) sea level (mb) 1 hr 3 hr 6 hr
Max. Min.
01 12:56 Vrbl 7 16.09 Fair CLR 22.8 11.7 50% 76.33 1018.1
01 10:56 Vrbl 9 16.09 Fair CLR 19.4 11.7 61% 76.38 1018.8
01 09:56 NE 9 16.09 Fair CLR 17.8 11.7 68% 76.4 1019.1
01 08:56 N 13 16.09 Fair CLR 15.6 10.6 72% 76.4 1019.1
01 07:56 N 11 16.09 Fair CLR 14.4 11.1 14.4 10 81% 76.38 1018.9
01 06:56 N 9 16.09 Overcast OVC055 12.2 10 87% 76.35 1018.5
01 05:56 N 9 16.09 A Few Clouds FEW055 10.6 10 96% 76.33 1018.1
01 04:56 NE 7 16.09 Fair CLR 10.6 10 96% 76.33 1018.1
01 03:56 NE 9 16.09 Mostly Cloudy BKN060 11.1 10.6 97% 76.33 1018.0
01 02:56 Calm 16.09 Mostly Cloudy BKN065 10.6 10 96% 76.33 1018.3
01 01:56 Calm 16.09 Fair CLR 11.1 10.6 17.2 10.6 97% 76.35 1018.3
01 00:56 Calm 16.09 Fair CLR 11.1 10 93% 76.35 1018.3
31 23:56 Calm 16.09 Fair CLR 12.8 10.6 87% 76.33 1018.2
31 22:56 SW 6 16.09 Fair CLR 13.9 10.6 81% 76.35 1018.3
31 21:56 SW 6 16.09 Fair CLR 14.4 11.7 84% 76.33 1018.1
31 20:56 Calm 16.09 Fair CLR 16.1 12.2 78% 76.33 1018.0
31 19:56 Calm 16.09 Fair CLR 16.1 12.2 24.4 16.1 78% 76.28 1017.4
31 18:56 Calm 16.09 Fair CLR 20.6 12.2 59% 76.28 1017.4
31 17:56 Calm 16.09 Fair CLR 23.3 10.6 45% 76.28 1017.5
31 16:56 Vrbl 7 16.09 Fair CLR 23.9 10 42% 25 76.3 1017.5
31 15:56 NW 6 16.09 Fair CLR 23.9 9.4 40% 25 76.3 1017.6
31 14:56 S 6 16.09 Fair CLR 22.8 8.9 41% 76.35 1018.3
31 12:56 SW 7 16.09 Fair CLR 21.7 9.4 46% 76.43 1019.3
31 11:56 NW 15 16.09 Fair CLR 20.6 10.6 53% 76.45 1019.6
31 10:56 NW 9 16.09 Fair CLR 19.4 10.6 57% 76.5 1020.3
31 09:56 NW 9 16.09 Fair CLR 17.2 11.1 68% 76.5 1020.3
31 08:56 NW 9 16.09 Fair CLR 16.7 11.1 70% 76.45 1019.7
31 07:56 Vrbl 7 16.09 Fair CLR 15 11.1 15 10.6 78% 76.48 1020.0 0.03
31 06:56 NW 9 16.09 Fair CLR 12.2 10.6 90% 76.43 1019.6
31 05:56 NW 6 16.09 Fair CLR 11.1 10 93% 76.38 1018.8
31 04:56 N 13 16.09 Fair CLR 11.7 10.6 93% 76.33 1018.0 0.03 0.03
31 03:56 NW 7 16.09 Fair CLR 12.2 11.1 93% 76.33 1018.1
31 02:56 NW 9 16.09 Fair CLR 12.8 12.2 96% 76.33 1018.0
31 01:56 N 9 16.09 Fair CLR 12.8 12.2 20.6 12.8 96% 76.28 1017.5 0.33
31 00:56 NW 9 16.09 Fair CLR 13.9 13.3 96% 76.25 1017.1
30 23:56 W 9 16.09 Fair CLR 14.4 13.9 97% 76.23 1016.5
30 22:56 W 9 16.09 Fair CLR 15 14.4 96% 76.17 1016.0 0.03 0.33
30 21:56 S 6 12.87 Rain SCT075 OVC090 14.4 14.4 100% 76.17 1016.0 0.25
30 20:56 NW 15 G 26 9.66 Rain Fog/Mist BKN044 OVC055 16.1 13.9 87% 76.2 1016.5 0.05
30 19:56 N 22 16.09 Overcast FEW049 BKN095 OVC110 20.6 14.4 22.8 20.6 68% 76.1 1014.9
30 18:56 W 7 16.09 Overcast OVC090 20.6 15 70% 76.02 1014.0
30 17:56 SW 17 16.09 Overcast OVC100 21.7 13.9 61% 76 1013.5
30 16:56 SW 11 16.09 Overcast OVC085 21.7 15.6 68% 76.02 1013.8
30 15:56 SW 20 16.09 Overcast OVC100 22.2 15.6 66% 76.02 1014.0
30 14:56 SW 19 16.09 Overcast OVC110 22.2 15.6 66% 76.07 1014.7
30 13:56 SW 17 16.09 Fair CLR 22.2 15.6 23.3 15 66% 76.12 1015.3
30 12:56 SW 17 16.09 Overcast FEW029 SCT090 OVC110 23.3 15.6 62% 76.15 1015.6
30 11:56 W 17 G 30 16.09 Overcast OVC120 23.3 14.4 57% 76.17 1016.0
30 10:56 SW 13 16.09 Mostly Cloudy BKN100 22.2 14.4 61% 76.25 1016.9
30 09:56 SW 15 16.09 A Few Clouds FEW110 22.2 15 64% 76.28 1017.2
30 08:56 SW 7 16.09 Fair CLR 18.9 14.4 75% 76.28 1017.4
30 07:56 S 7 16.09 Fair CLR 15 13.3 15 11.7 90% 76.3 1017.7
30 06:56 SW 9 16.09 Fair CLR 12.2 12.2 100% 76.3 1017.9
30 05:56 SW 9 16.09 A Few Clouds FEW080 11.7 11.1 96% 76.33 1018.1
30 04:56 SW 6 16.09 Mostly Cloudy BKN090 12.8 12.2 96% 76.35 1018.2
30 03:56 S 9 16.09 Fair CLR 12.2 12.2 100% 76.35 1018.3
29 23:56 SW 7 16.09 Fair CLR 13.3 11.1 87% 76.43 1019.3
29 22:56 SW 7 16.09 Fair CLR 14.4 11.1 81% 76.45 1019.8
29 21:56 SW 9 16.09 Fair CLR 14.4 10.6 78% 76.43 1019.5
29 20:56 W 7 16.09 Fair CLR 17.8 10 60% 76.45 1019.6
29 19:56 W 6 16.09 Fair CLR 18.3 10 24.4 18.3 59% 76.43 1019.4
29 18:56 W 7 16.09 Fair CLR 21.1 10 49% 76.4 1019.1
29 17:56 W 11 16.09 Fair CLR 23.3 9.4 41% 76.43 1019.2
29 16:56 Vrbl 6 16.09 Fair CLR 23.9 9.4 40% 25 76.43 1019.2
29 15:56 W 17 16.09 Fair CLR 23.9 9.4 40% 25 76.43 1019.4
29 14:56 W 15 16.09 Fair CLR 23.3 8.9 40% 76.48 1019.9
29 13:56 Vrbl 11 16.09 A Few Clouds FEW055 22.8 8.9 22.8 16.7 41% 76.53 1020.5
Date Time (edt) Wind (kph) Vis. (km) Weather Sky Cond. Air Dwpt Max. Min. Relative Humidity Wind Chill (°C) Heat Index (°C) altimeter (cm) sea level (mb) 1 hr 3 hr 6 hr
6 hour
Temperature (ºC) Pressure Precipitation (cm)